createdAt,value
2023-05-15T00:00:52.000Z,8.74
2023-05-15T00:01:51.989Z,8.73
2023-05-15T00:02:52.064Z,8.77
2023-05-15T00:03:52.087Z,8.71
2023-05-15T00:04:51.994Z,8.66
2023-05-15T00:05:51.949Z,8.68
2023-05-15T00:06:51.936Z,8.70
2023-05-15T00:07:51.956Z,8.73
2023-05-15T00:08:51.940Z,8.66
2023-05-15T00:09:51.899Z,8.61
2023-05-15T00:11:00.803Z,8.70
2023-05-15T00:11:52.891Z,8.80
2023-05-15T00:12:51.913Z,8.70
2023-05-15T00:13:51.849Z,8.65
2023-05-15T00:14:51.856Z,8.68
2023-05-15T00:15:51.895Z,8.79
2023-05-15T00:16:51.864Z,8.84
2023-05-15T00:17:51.879Z,8.68
2023-05-15T00:18:51.869Z,8.80
2023-05-15T00:19:51.792Z,8.79
2023-05-15T00:20:51.771Z,8.84
2023-05-15T00:21:51.804Z,8.89
2023-05-15T00:23:51.737Z,8.84
2023-05-15T00:24:51.726Z,8.86
2023-05-15T00:25:51.721Z,8.81
2023-05-15T00:26:51.726Z,8.83
2023-05-15T00:27:51.705Z,8.84
2023-05-15T00:28:51.720Z,8.79
2023-05-15T00:29:51.688Z,8.86
2023-05-15T00:30:51.684Z,8.89
2023-05-15T00:31:51.777Z,8.96
2023-05-15T00:32:51.697Z,8.87
2023-05-15T00:33:51.625Z,8.98
2023-05-15T00:34:51.633Z,8.91
2023-05-15T00:35:51.633Z,8.91
2023-05-15T00:36:51.608Z,8.94
2023-05-15T00:37:51.600Z,8.95
2023-05-15T00:38:51.586Z,8.99
2023-05-15T00:39:51.582Z,8.95
2023-05-15T00:40:51.582Z,8.96
2023-05-15T00:41:51.549Z,9.01
2023-05-15T00:42:51.541Z,8.99
2023-05-15T00:43:51.524Z,8.99
2023-05-15T00:44:51.557Z,8.94
2023-05-15T00:45:51.529Z,8.94
2023-05-15T00:46:51.494Z,8.96
2023-05-15T00:47:51.508Z,8.96
2023-05-15T00:48:51.498Z,8.84
2023-05-15T00:49:51.475Z,8.94
2023-05-15T00:50:51.473Z,8.83
2023-05-15T00:51:51.438Z,8.81
2023-05-15T00:52:51.441Z,8.89
2023-05-15T00:53:51.485Z,8.87
2023-05-15T00:54:51.418Z,8.87
2023-05-15T00:55:51.392Z,8.94
2023-05-15T00:56:51.383Z,8.95
2023-05-15T00:57:51.368Z,8.95
2023-05-15T00:58:51.380Z,8.83
2023-05-15T00:59:51.339Z,8.96
2023-05-15T01:00:51.395Z,8.96
2023-05-15T01:01:51.337Z,8.94
2023-05-15T01:02:51.384Z,8.99
2023-05-15T01:03:51.315Z,8.96
2023-05-15T01:04:51.297Z,8.92
2023-05-15T01:05:51.281Z,8.95
2023-05-15T01:06:51.809Z,8.95
2023-05-15T01:07:51.284Z,9.04
2023-05-15T01:08:51.267Z,8.98
2023-05-15T01:09:51.262Z,8.95
2023-05-15T01:10:51.218Z,9.02
2023-05-15T01:11:51.218Z,8.98
2023-05-15T01:12:51.225Z,9.05
2023-05-15T01:13:51.213Z,9.05
2023-05-15T01:14:51.175Z,9.10
2023-05-15T01:15:51.179Z,9.10
2023-05-15T01:16:51.177Z,9.01
2023-05-15T01:17:51.230Z,9.02
2023-05-15T01:18:51.206Z,9.14
2023-05-15T01:19:51.287Z,9.11
2023-05-15T01:20:51.102Z,9.11
2023-05-15T01:21:51.118Z,9.14
2023-05-15T01:22:51.100Z,9.13
2023-05-15T01:23:51.071Z,9.13
2023-05-15T01:24:51.082Z,9.14
2023-05-15T01:25:51.057Z,9.14
2023-05-15T01:26:51.092Z,9.11
2023-05-15T01:27:51.065Z,9.15
2023-05-15T01:28:51.013Z,9.17
2023-05-15T01:29:51.012Z,9.14
2023-05-15T01:30:51.009Z,9.14
2023-05-15T01:31:51.024Z,9.28
2023-05-15T01:32:51.036Z,9.17
2023-05-15T01:33:50.979Z,9.13
2023-05-15T01:34:50.969Z,9.23
2023-05-15T01:35:50.977Z,9.24
2023-05-15T01:36:50.951Z,9.17
2023-05-15T01:37:50.911Z,9.20
2023-05-15T01:38:50.905Z,9.23
2023-05-15T01:39:50.901Z,9.26
2023-05-15T01:40:50.928Z,9.23
2023-05-15T01:43:02.185Z,9.26
2023-05-15T01:44:01.887Z,9.29
2023-05-15T01:45:01.882Z,9.28
2023-05-15T01:46:01.910Z,9.33
2023-05-15T01:47:01.880Z,9.29
2023-05-15T01:48:01.907Z,9.40
2023-05-15T01:49:01.833Z,9.28
2023-05-15T01:50:01.974Z,9.38
2023-05-15T01:51:01.835Z,9.38
2023-05-15T01:52:01.797Z,9.31
2023-05-15T01:53:01.785Z,9.35
2023-05-15T01:54:01.774Z,9.38
2023-05-15T01:55:01.787Z,9.39
2023-05-15T01:56:01.744Z,9.46
2023-05-15T01:57:01.747Z,9.28
2023-05-15T01:58:01.719Z,9.39
2023-05-15T01:59:01.708Z,9.42
2023-05-15T02:00:01.734Z,9.38
2023-05-15T02:01:01.699Z,9.33
2023-05-15T02:02:01.728Z,9.43
2023-05-15T02:03:01.758Z,9.39
2023-05-15T02:04:01.856Z,9.36
2023-05-15T02:05:01.659Z,9.46
2023-05-15T02:06:01.632Z,9.35
2023-05-15T02:07:01.626Z,9.35
2023-05-15T02:08:01.633Z,9.39
2023-05-15T02:09:01.631Z,9.42
2023-05-15T02:10:01.607Z,9.46
2023-05-15T02:11:01.586Z,9.42
2023-05-15T02:12:01.565Z,9.51
2023-05-15T02:13:01.556Z,9.47
2023-05-15T02:14:01.580Z,9.46
2023-05-15T02:15:01.528Z,9.47
2023-05-15T02:16:01.560Z,9.54
2023-05-15T02:17:01.515Z,9.48
2023-05-15T02:18:01.571Z,9.54
2023-05-15T02:19:01.569Z,9.47
2023-05-15T02:20:01.542Z,9.51
2023-05-15T02:21:01.481Z,9.47
2023-05-15T02:22:01.456Z,9.48
2023-05-15T02:23:01.464Z,9.47
2023-05-15T02:24:01.445Z,9.42
2023-05-15T02:25:01.425Z,9.50
2023-05-15T02:26:01.422Z,9.50
2023-05-15T02:27:01.407Z,9.48
2023-05-15T02:28:01.404Z,9.53
2023-05-15T02:29:01.373Z,9.51
2023-05-15T02:30:01.390Z,9.51
2023-05-15T02:31:01.359Z,9.47
2023-05-15T02:32:01.389Z,9.48
2023-05-15T02:33:01.521Z,9.58
2023-05-15T02:34:01.330Z,9.60
2023-05-15T02:35:01.320Z,9.60
2023-05-15T02:36:01.340Z,9.58
2023-05-15T02:37:01.306Z,9.64
2023-05-15T02:38:01.279Z,9.48
2023-05-15T02:39:01.253Z,9.48
2023-05-15T02:40:01.313Z,9.53
2023-05-15T02:41:01.246Z,9.61
2023-05-15T02:42:01.271Z,9.57
2023-05-15T02:43:01.242Z,9.54
2023-05-15T02:44:01.207Z,9.61
2023-05-15T02:45:01.198Z,9.47
2023-05-15T02:46:01.236Z,9.50
2023-05-15T02:47:01.206Z,9.51
2023-05-15T02:48:01.212Z,9.51
2023-05-15T02:49:01.155Z,9.53
2023-05-15T02:50:01.131Z,9.53
2023-05-15T02:51:01.187Z,9.47
2023-05-15T02:52:01.172Z,9.56
2023-05-15T02:53:01.108Z,9.39
2023-05-15T02:54:01.108Z,9.38
2023-05-15T02:55:01.078Z,9.38
2023-05-15T02:56:01.105Z,9.51
2023-05-15T02:57:01.070Z,9.47
2023-05-15T02:58:01.046Z,9.39
2023-05-15T02:59:01.036Z,9.51
2023-05-15T03:00:01.348Z,9.40
2023-05-15T03:01:01.099Z,9.43
2023-05-15T03:02:01.012Z,9.46
2023-05-15T03:03:01.017Z,9.39
2023-05-15T03:04:00.990Z,9.32
2023-05-15T03:05:00.990Z,9.32
2023-05-15T03:06:01.023Z,9.43
2023-05-15T03:07:00.959Z,9.36
2023-05-15T03:08:00.949Z,9.38
2023-05-15T03:09:00.926Z,9.39
2023-05-15T03:10:00.940Z,9.33
2023-05-15T03:11:00.896Z,9.38
2023-05-15T03:12:00.893Z,9.32
2023-05-15T03:13:00.911Z,9.31
2023-05-15T03:14:00.874Z,9.29
2023-05-15T03:15:00.884Z,9.29
2023-05-15T03:16:00.855Z,9.17
2023-05-15T03:17:00.863Z,9.23
2023-05-15T03:18:00.838Z,9.26
2023-05-15T03:19:00.905Z,9.23
2023-05-15T03:20:00.806Z,9.20
2023-05-15T03:21:00.810Z,9.20
2023-05-15T03:22:00.799Z,9.18
2023-05-15T03:23:00.807Z,9.17
2023-05-15T03:24:00.796Z,9.17
2023-05-15T03:25:00.755Z,9.14
2023-05-15T03:26:00.732Z,9.15
2023-05-15T03:27:00.725Z,9.15
2023-05-15T03:28:00.774Z,9.04
2023-05-15T03:29:00.736Z,9.05
2023-05-15T03:30:00.682Z,9.01
2023-05-15T03:31:00.711Z,8.99
2023-05-15T03:32:00.661Z,8.95
2023-05-15T03:33:00.718Z,8.92
2023-05-15T03:34:00.649Z,8.92
2023-05-15T03:35:00.618Z,8.95
2023-05-15T03:36:00.623Z,8.95
2023-05-15T03:37:00.609Z,8.94
2023-05-15T03:38:00.628Z,8.92
2023-05-15T03:39:00.596Z,8.98
2023-05-15T03:40:00.606Z,9.01
2023-05-15T03:41:00.569Z,9.01
2023-05-15T03:42:00.581Z,8.99
2023-05-15T03:43:00.574Z,9.02
2023-05-15T03:44:00.555Z,9.02
2023-05-15T03:45:00.520Z,8.96
2023-05-15T03:46:00.493Z,9.02
2023-05-15T03:47:00.540Z,8.98
2023-05-15T03:48:00.485Z,9.04
2023-05-15T03:49:00.471Z,9.10
2023-05-15T03:50:00.459Z,9.08
2023-05-15T03:51:00.455Z,9.08
2023-05-15T03:52:00.451Z,9.11
2023-05-15T03:53:00.423Z,9.08
2023-05-15T03:54:00.435Z,9.11
2023-05-15T03:55:00.435Z,9.13
2023-05-15T03:56:00.434Z,9.14
2023-05-15T03:57:00.526Z,9.17
2023-05-15T03:58:00.374Z,9.18
2023-05-15T03:59:00.359Z,9.21
2023-05-15T04:00:00.361Z,9.14
2023-05-15T04:01:00.364Z,9.24
2023-05-15T04:02:04.734Z,9.17
2023-05-15T04:03:01.430Z,9.18
2023-05-15T04:04:00.303Z,9.21
2023-05-15T04:05:00.366Z,9.32
2023-05-15T04:06:00.296Z,9.28
2023-05-15T04:07:00.274Z,9.26
2023-05-15T04:08:00.260Z,9.38
2023-05-15T04:09:00.228Z,9.40
2023-05-15T04:10:00.236Z,9.31
2023-05-15T04:11:00.231Z,9.26
2023-05-15T04:12:00.218Z,9.31
2023-05-15T04:13:00.201Z,9.38
2023-05-15T04:14:00.181Z,9.36
2023-05-15T04:15:00.188Z,9.46
2023-05-15T04:16:00.229Z,9.48
2023-05-15T04:17:00.159Z,9.40
2023-05-15T04:18:00.225Z,9.48
2023-05-15T04:19:00.234Z,9.51
2023-05-15T04:20:00.116Z,9.54
2023-05-15T04:21:00.142Z,9.60
2023-05-15T04:22:00.098Z,9.60
2023-05-15T04:23:00.104Z,9.65
2023-05-15T04:24:00.101Z,9.66
2023-05-15T04:25:00.070Z,9.68
2023-05-15T04:26:00.058Z,9.75
2023-05-15T04:27:00.075Z,9.81
2023-05-15T04:28:00.049Z,9.79
2023-05-15T04:29:03.898Z,9.78
2023-05-15T04:29:59.998Z,9.94
2023-05-15T04:30:59.996Z,9.96
2023-05-15T04:32:00.022Z,10.01
2023-05-15T04:33:00.019Z,10.11
2023-05-15T04:33:59.968Z,10.05
2023-05-15T04:34:59.935Z,10.02
2023-05-15T04:35:59.923Z,10.07
2023-05-15T04:36:59.913Z,10.18
2023-05-15T04:38:00.032Z,10.22
2023-05-15T04:38:59.910Z,10.09
2023-05-15T04:39:59.882Z,10.22
2023-05-15T04:40:59.894Z,10.15
2023-05-15T04:41:59.864Z,10.17
2023-05-15T04:42:59.897Z,10.26
2023-05-15T04:43:59.854Z,10.25
2023-05-15T04:44:59.837Z,10.30
2023-05-15T04:45:59.840Z,10.38
2023-05-15T04:46:59.808Z,10.36
2023-05-15T04:47:59.835Z,10.40
2023-05-15T04:48:59.781Z,10.38
2023-05-15T04:49:59.765Z,10.42
2023-05-15T04:50:59.831Z,10.36
2023-05-15T04:51:59.772Z,10.44
2023-05-15T04:52:59.747Z,10.42
2023-05-15T04:53:59.722Z,10.38
2023-05-15T04:54:59.711Z,10.33
2023-05-15T04:55:59.703Z,10.33
2023-05-15T04:56:59.757Z,10.36
2023-05-15T04:57:59.677Z,10.44
2023-05-15T04:58:59.673Z,10.48
2023-05-15T04:59:59.681Z,10.47
2023-05-15T05:01:59.696Z,10.47
2023-05-15T05:02:59.711Z,10.52
2023-05-15T05:03:59.642Z,10.52
2023-05-15T05:04:59.601Z,10.38
2023-05-15T05:05:59.597Z,10.53
2023-05-15T05:06:59.816Z,10.53
2023-05-15T05:07:59.566Z,10.47
2023-05-15T05:08:59.552Z,10.51
2023-05-15T05:09:59.541Z,10.56
2023-05-15T05:10:59.548Z,10.60
2023-05-15T05:11:59.521Z,10.63
2023-05-15T05:12:59.549Z,10.67
2023-05-15T05:13:59.540Z,10.74
2023-05-15T05:14:59.491Z,10.82
2023-05-15T05:15:59.610Z,10.81
2023-05-15T05:16:59.463Z,10.92
2023-05-15T05:17:59.519Z,11.02
2023-05-15T05:18:59.480Z,11.22
2023-05-15T05:19:59.456Z,11.42
2023-05-15T05:20:59.831Z,11.79
2023-05-15T05:21:59.414Z,12.09
2023-05-15T05:22:59.408Z,12.59
2023-05-15T05:23:59.397Z,12.72
2023-05-15T05:24:59.392Z,12.74
2023-05-15T05:25:59.365Z,12.75
2023-05-15T05:26:59.365Z,12.75
2023-05-15T05:27:59.365Z,12.90
2023-05-15T05:28:59.329Z,13.01
2023-05-15T05:29:59.335Z,13.08
2023-05-15T05:30:59.388Z,12.93
2023-05-15T05:31:59.379Z,12.85
2023-05-15T05:32:59.354Z,13.00
2023-05-15T05:33:59.302Z,13.25
2023-05-15T05:34:59.281Z,13.44
2023-05-15T05:35:59.263Z,13.57
2023-05-15T05:36:59.285Z,13.79
2023-05-15T05:37:59.271Z,14.17
2023-05-15T05:38:59.227Z,14.58
2023-05-15T05:39:59.241Z,14.86
2023-05-15T05:40:59.192Z,15.14
2023-05-15T05:41:59.272Z,15.19
2023-05-15T05:42:59.174Z,15.28
2023-05-15T05:43:59.217Z,15.23
2023-05-15T05:44:59.145Z,15.31
2023-05-15T05:45:59.192Z,15.23
2023-05-15T05:46:59.139Z,15.28
2023-05-15T05:47:59.189Z,15.39
2023-05-15T05:48:59.135Z,15.50
2023-05-15T05:49:59.105Z,15.44
2023-05-15T05:50:59.086Z,15.38
2023-05-15T05:51:59.067Z,15.57
2023-05-15T05:52:59.121Z,15.57
2023-05-15T05:53:59.059Z,15.67
2023-05-15T05:54:59.029Z,15.72
2023-05-15T05:55:59.024Z,15.84
2023-05-15T05:56:59.009Z,15.86
2023-05-15T05:57:59.016Z,15.74
2023-05-15T05:58:58.984Z,15.67
2023-05-15T05:59:58.976Z,15.75
2023-05-15T06:00:58.972Z,15.92
2023-05-15T06:01:59.010Z,16.07
2023-05-15T06:02:59.063Z,16.04
2023-05-15T06:03:59.028Z,15.92
2023-05-15T06:04:58.917Z,16.02
2023-05-15T06:05:58.913Z,16.09
2023-05-15T06:06:58.906Z,16.15
2023-05-15T06:07:58.888Z,16.15
2023-05-15T06:08:58.884Z,16.15
2023-05-15T06:09:58.860Z,16.15
2023-05-15T06:10:58.847Z,16.27
2023-05-15T06:11:58.865Z,16.30
2023-05-15T06:12:58.823Z,16.08
2023-05-15T06:13:58.823Z,15.75
2023-05-15T06:14:58.816Z,15.32
2023-05-15T06:15:58.814Z,15.19
2023-05-15T06:16:58.873Z,14.98
2023-05-15T06:17:58.861Z,14.92
2023-05-15T06:18:58.793Z,14.72
2023-05-15T06:19:58.802Z,14.64
2023-05-15T06:20:58.752Z,14.54
2023-05-15T06:21:58.751Z,14.29
2023-05-15T06:22:58.733Z,14.25
2023-05-15T06:23:58.700Z,14.35
2023-05-15T06:24:58.702Z,14.40
2023-05-15T06:25:58.832Z,14.39
2023-05-15T06:26:58.670Z,14.43
2023-05-15T06:27:58.661Z,14.39
2023-05-15T06:28:58.649Z,14.43
2023-05-15T06:29:59.030Z,14.45
2023-05-15T06:30:58.683Z,14.35
2023-05-15T06:31:58.647Z,14.46
2023-05-15T06:32:58.721Z,14.46
2023-05-15T06:33:58.595Z,14.54
2023-05-15T06:34:58.605Z,14.50
2023-05-15T06:35:58.799Z,14.54
2023-05-15T06:36:58.561Z,14.46
2023-05-15T06:37:58.840Z,14.47
2023-05-15T06:38:58.533Z,14.47
2023-05-15T06:39:58.543Z,14.61
2023-05-15T06:40:58.517Z,14.61
2023-05-15T06:41:58.505Z,14.61
2023-05-15T06:42:58.503Z,14.60
2023-05-15T06:43:58.494Z,14.75
2023-05-15T06:44:58.504Z,14.86
2023-05-15T06:45:58.462Z,14.77
2023-05-15T06:46:58.478Z,14.99
2023-05-15T06:48:01.398Z,14.91
2023-05-15T06:48:58.493Z,14.94
2023-05-15T06:49:58.413Z,14.92
2023-05-15T06:50:58.405Z,15.03
2023-05-15T06:51:58.418Z,15.17
2023-05-15T06:52:58.383Z,15.09
2023-05-15T06:53:58.390Z,15.21
2023-05-15T06:54:58.359Z,15.34
2023-05-15T06:55:58.346Z,15.32
2023-05-15T06:56:58.339Z,15.35
2023-05-15T06:57:58.338Z,15.35
2023-05-15T06:58:58.327Z,15.35
2023-05-15T06:59:58.297Z,15.43
2023-05-15T07:00:59.481Z,15.39
2023-05-15T07:01:58.337Z,15.38
2023-05-15T07:02:58.389Z,15.32
2023-05-15T07:03:58.255Z,15.31
2023-05-15T07:04:58.287Z,15.32
2023-05-15T07:05:58.237Z,15.34
2023-05-15T07:06:58.232Z,15.19
2023-05-15T07:07:58.314Z,14.98
2023-05-15T07:08:58.194Z,15.06
2023-05-15T07:09:58.192Z,15.16
2023-05-15T07:10:58.174Z,15.21
2023-05-15T07:11:58.184Z,15.17
2023-05-15T07:12:58.164Z,15.20
2023-05-15T07:13:58.149Z,15.38
2023-05-15T07:14:58.146Z,15.43
2023-05-15T07:15:58.122Z,15.36
2023-05-15T07:16:58.157Z,15.51
2023-05-15T07:17:58.256Z,15.44
2023-05-15T07:18:58.118Z,15.49
2023-05-15T07:19:58.082Z,15.44
2023-05-15T07:20:58.066Z,15.51
2023-05-15T07:21:58.068Z,15.62
2023-05-15T07:22:58.036Z,15.51
2023-05-15T07:23:58.046Z,15.51
2023-05-15T07:24:58.023Z,15.57
2023-05-15T07:25:58.028Z,15.51
2023-05-15T07:26:59.264Z,15.59
2023-05-15T07:27:57.997Z,15.65
2023-05-15T07:28:57.977Z,15.74
2023-05-15T07:29:57.963Z,15.86
2023-05-15T07:30:57.965Z,15.90
2023-05-15T07:31:58.083Z,16.02
2023-05-15T07:32:57.964Z,16.07
2023-05-15T07:33:57.914Z,16.02
2023-05-15T07:34:57.926Z,16.00
2023-05-15T07:35:57.909Z,16.14
2023-05-15T07:36:57.880Z,16.17
2023-05-15T07:37:57.894Z,16.34
2023-05-15T07:38:57.864Z,16.39
2023-05-15T07:39:57.962Z,16.35
2023-05-15T07:40:57.846Z,16.46
2023-05-15T07:41:57.834Z,16.52
2023-05-15T07:42:57.807Z,16.57
2023-05-15T07:43:57.800Z,16.64
2023-05-15T07:44:57.835Z,16.60
2023-05-15T07:45:57.851Z,16.63
2023-05-15T07:46:57.762Z,16.70
2023-05-15T07:47:57.828Z,16.71
2023-05-15T07:48:57.745Z,16.66
2023-05-15T07:49:57.761Z,16.73
2023-05-15T07:50:57.728Z,16.78
2023-05-15T07:51:57.723Z,16.85
2023-05-15T07:52:57.697Z,16.83
2023-05-15T07:53:57.984Z,16.93
2023-05-15T07:54:57.686Z,17.01
2023-05-15T07:55:57.745Z,17.11
2023-05-15T07:56:57.654Z,17.03
2023-05-15T07:57:57.642Z,16.97
2023-05-15T07:58:57.720Z,16.98
2023-05-15T07:59:57.617Z,16.91
2023-05-15T08:00:57.605Z,16.88
2023-05-15T08:01:57.614Z,16.91
2023-05-15T08:02:57.630Z,16.63
2023-05-15T08:03:57.684Z,16.49
2023-05-15T08:04:57.569Z,16.45
2023-05-15T08:05:57.558Z,16.42
2023-05-15T08:06:57.558Z,16.63
2023-05-15T08:07:57.553Z,16.82
2023-05-15T08:08:57.547Z,16.86
2023-05-15T08:09:57.507Z,17.00
2023-05-15T08:10:57.494Z,17.16
2023-05-15T08:11:57.531Z,17.19
2023-05-15T08:12:57.487Z,17.14
2023-05-15T08:13:57.517Z,17.07
2023-05-15T08:14:57.450Z,17.12
2023-05-15T08:15:57.493Z,17.22
2023-05-15T08:16:57.426Z,17.15
2023-05-15T08:17:57.504Z,17.23
2023-05-15T08:18:57.444Z,17.18
2023-05-15T08:19:57.394Z,17.11
2023-05-15T08:20:57.378Z,17.18
2023-05-15T08:21:57.432Z,17.40
2023-05-15T08:22:57.374Z,17.56
2023-05-15T08:23:57.378Z,17.68
2023-05-15T08:24:57.336Z,17.74
2023-05-15T08:25:57.328Z,18.00
2023-05-15T08:26:57.335Z,18.27
2023-05-15T08:27:57.319Z,18.36
2023-05-15T08:28:57.292Z,18.50
2023-05-15T08:29:57.284Z,18.54
2023-05-15T08:30:57.298Z,18.81
2023-05-15T08:31:57.272Z,18.82
2023-05-15T08:32:57.303Z,18.76
2023-05-15T08:33:57.247Z,18.66
2023-05-15T08:34:57.224Z,18.75
2023-05-15T08:35:57.346Z,18.65
2023-05-15T08:36:57.211Z,18.76
2023-05-15T08:37:57.197Z,18.91
2023-05-15T08:38:57.178Z,19.18
2023-05-15T08:39:57.174Z,19.33
2023-05-15T08:40:57.162Z,19.50
2023-05-15T08:41:57.145Z,19.54
2023-05-15T08:42:57.146Z,19.66
2023-05-15T08:43:57.170Z,19.87
2023-05-15T08:44:57.113Z,19.96
2023-05-15T08:45:57.135Z,20.10
2023-05-15T08:46:57.139Z,20.10
2023-05-15T08:47:57.138Z,20.14
2023-05-15T08:48:57.123Z,20.17
2023-05-15T08:51:07.759Z,20.31
2023-05-15T08:52:07.737Z,20.29
2023-05-15T08:53:07.743Z,20.24
2023-05-15T08:54:07.715Z,20.42
2023-05-15T08:55:07.727Z,20.50
2023-05-15T08:56:07.694Z,20.87
2023-05-15T08:57:07.683Z,21.04
2023-05-15T08:58:07.674Z,21.03
2023-05-15T08:59:07.772Z,21.16
2023-05-15T09:00:08.956Z,21.12
2023-05-15T09:01:07.649Z,21.14
2023-05-15T09:02:07.684Z,21.12
2023-05-15T09:03:07.701Z,21.14
2023-05-15T09:04:07.796Z,21.27
2023-05-15T09:05:07.600Z,21.22
2023-05-15T09:06:07.582Z,21.44
2023-05-15T09:07:07.581Z,21.38
2023-05-15T09:08:07.567Z,21.49
2023-05-15T09:09:07.576Z,21.68
2023-05-15T09:10:07.538Z,21.62
2023-05-15T09:11:07.533Z,21.88
2023-05-15T09:12:07.532Z,21.98
2023-05-15T09:13:07.557Z,21.98
2023-05-15T09:14:07.670Z,21.92
2023-05-15T09:15:07.506Z,22.03
2023-05-15T09:16:07.478Z,22.14
2023-05-15T09:17:07.550Z,22.14
2023-05-15T09:18:07.573Z,22.17
2023-05-15T09:19:07.507Z,22.20
2023-05-15T09:20:07.445Z,22.06
2023-05-15T09:21:07.427Z,22.20
2023-05-15T09:22:07.409Z,22.36
2023-05-15T09:23:07.410Z,22.52
2023-05-15T09:24:07.385Z,22.62
2023-05-15T09:25:07.374Z,22.72
2023-05-15T09:26:07.364Z,22.92
2023-05-15T09:27:07.373Z,22.47
2023-05-15T09:28:07.370Z,22.47
2023-05-15T09:29:07.348Z,22.54
2023-05-15T09:30:07.323Z,22.45
2023-05-15T09:31:07.325Z,22.42
2023-05-15T09:32:07.379Z,22.17
2023-05-15T09:33:07.381Z,21.71
2023-05-15T09:34:07.278Z,21.38
2023-05-15T09:35:07.266Z,21.22
2023-05-15T09:36:07.254Z,21.27
2023-05-15T09:37:07.258Z,21.31
2023-05-15T09:38:07.231Z,21.32
2023-05-15T09:39:07.221Z,21.62
2023-05-15T09:40:07.208Z,21.74
2023-05-15T09:41:07.227Z,22.03
2023-05-15T09:42:07.207Z,21.91
2023-05-15T09:43:07.187Z,21.90
2023-05-15T09:44:07.166Z,21.88
2023-05-15T09:45:07.170Z,21.71
2023-05-15T09:46:07.194Z,21.79
2023-05-15T09:47:07.233Z,21.77
2023-05-15T09:48:07.275Z,21.68
2023-05-15T09:49:07.107Z,21.91
2023-05-15T09:50:07.100Z,21.83
2023-05-15T09:51:07.111Z,21.90
2023-05-15T09:52:07.077Z,21.96
2023-05-15T09:53:07.069Z,22.07
2023-05-15T09:54:07.057Z,22.20
2023-05-15T09:55:07.069Z,22.09
2023-05-15T09:56:07.054Z,22.12
2023-05-15T09:57:07.045Z,21.99
2023-05-15T09:58:07.022Z,21.91
2023-05-15T09:59:07.002Z,22.02
2023-05-15T10:00:07.017Z,22.18
2023-05-15T10:01:06.995Z,22.20
2023-05-15T10:02:06.968Z,22.36
2023-05-15T10:03:07.078Z,22.65
2023-05-15T10:04:06.962Z,22.97
2023-05-15T10:05:06.974Z,23.01
2023-05-15T10:06:07.009Z,22.90
2023-05-15T10:07:06.926Z,22.64
2023-05-15T10:08:06.902Z,22.12
2023-05-15T10:09:06.912Z,21.65
2023-05-15T10:10:06.897Z,21.47
2023-05-15T10:11:06.882Z,21.40
2023-05-15T10:12:06.860Z,21.16
2023-05-15T10:13:06.851Z,21.16
2023-05-15T10:14:06.853Z,21.14
2023-05-15T10:15:06.824Z,20.79
2023-05-15T10:16:06.838Z,20.85
2023-05-15T10:17:06.809Z,20.51
2023-05-15T10:18:06.828Z,20.57
2023-05-15T10:19:07.012Z,20.72
2023-05-15T10:20:06.769Z,20.67
2023-05-15T10:21:06.774Z,20.69
2023-05-15T10:22:06.745Z,20.82
2023-05-15T10:23:06.777Z,20.80
2023-05-15T10:24:06.756Z,20.64
2023-05-15T10:25:06.752Z,20.50
2023-05-15T10:26:06.701Z,20.38
2023-05-15T10:27:06.693Z,20.26
2023-05-15T10:28:06.698Z,20.05
2023-05-15T10:29:06.674Z,19.98
2023-05-15T10:30:06.661Z,20.05
2023-05-15T10:31:06.728Z,19.99
2023-05-15T10:32:06.643Z,20.13
2023-05-15T10:33:06.684Z,20.26
2023-05-15T10:34:06.626Z,20.23
2023-05-15T10:35:06.656Z,20.42
2023-05-15T10:36:06.590Z,20.29
2023-05-15T10:37:06.599Z,20.42
2023-05-15T10:38:06.765Z,20.57
2023-05-15T10:39:06.573Z,20.64
2023-05-15T10:40:06.547Z,20.57
2023-05-15T10:41:17.346Z,20.82
2023-05-15T10:42:07.540Z,21.03
2023-05-15T10:43:06.520Z,21.38
2023-05-15T10:44:06.526Z,21.46
2023-05-15T10:45:06.488Z,21.32
2023-05-15T10:46:06.475Z,21.34
2023-05-15T10:47:06.529Z,21.34
2023-05-15T10:48:06.552Z,21.25
2023-05-15T10:49:06.466Z,21.10
2023-05-15T10:50:06.435Z,20.97
2023-05-15T10:51:06.461Z,20.89
2023-05-15T10:52:06.436Z,20.88
2023-05-15T10:53:06.407Z,20.73
2023-05-15T10:54:06.412Z,20.72
2023-05-15T10:55:06.378Z,21.01
2023-05-15T10:56:06.445Z,21.16
2023-05-15T10:57:06.356Z,21.29
2023-05-15T10:58:06.345Z,21.38
2023-05-15T10:59:06.348Z,21.16
2023-05-15T11:00:06.326Z,21.01
2023-05-15T11:01:06.362Z,20.74
2023-05-15T11:02:06.298Z,20.42
2023-05-15T11:03:06.362Z,20.21
2023-05-15T11:04:06.295Z,20.03
2023-05-15T11:05:06.291Z,20.05
2023-05-15T11:06:06.282Z,20.11
2023-05-15T11:07:06.275Z,20.08
2023-05-15T11:08:06.226Z,19.99
2023-05-15T11:09:06.218Z,19.95
2023-05-15T11:10:06.261Z,19.88
2023-05-15T11:11:06.203Z,19.99
2023-05-15T11:12:06.208Z,20.01
2023-05-15T11:13:06.174Z,20.03
2023-05-15T11:14:06.196Z,19.96
2023-05-15T11:15:06.169Z,19.91
2023-05-15T11:16:06.134Z,19.92
2023-05-15T11:17:06.265Z,19.76
2023-05-15T11:18:06.147Z,19.73
2023-05-15T11:19:06.188Z,19.83
2023-05-15T11:20:06.094Z,19.78
2023-05-15T11:21:06.085Z,19.86
2023-05-15T11:22:06.077Z,19.86
2023-05-15T11:23:06.081Z,19.94
2023-05-15T11:24:06.064Z,19.99
2023-05-15T11:25:06.056Z,19.96
2023-05-15T11:26:06.031Z,19.91
2023-05-15T11:27:06.053Z,19.88
2023-05-15T11:28:06.005Z,19.91
2023-05-15T11:29:06.011Z,19.98
2023-05-15T11:30:05.990Z,20.01
2023-05-15T11:31:06.011Z,20.05
2023-05-15T11:32:05.963Z,20.01
2023-05-15T11:33:06.010Z,19.96
2023-05-15T11:34:06.242Z,19.99
2023-05-15T11:35:05.926Z,20.18
2023-05-15T11:36:05.908Z,20.23
2023-05-15T11:37:05.900Z,20.33
2023-05-15T11:38:05.904Z,20.41
2023-05-15T11:39:05.912Z,20.31
2023-05-15T11:40:05.866Z,20.39
2023-05-15T11:41:05.858Z,20.42
2023-05-15T11:42:05.849Z,20.42
2023-05-15T11:43:05.866Z,20.41
2023-05-15T11:44:05.829Z,20.38
2023-05-15T11:45:05.818Z,20.62
2023-05-15T11:46:05.858Z,20.99
2023-05-15T11:47:05.867Z,21.16
2023-05-15T11:48:06.193Z,21.37
2023-05-15T11:49:05.774Z,21.47
2023-05-15T11:50:05.781Z,21.58
2023-05-15T11:51:05.752Z,21.75
2023-05-15T11:52:05.757Z,21.61
2023-05-15T11:53:05.724Z,21.56
2023-05-15T11:54:06.312Z,21.42
2023-05-15T11:55:05.720Z,21.37
2023-05-15T11:56:05.688Z,21.34
2023-05-15T11:57:05.705Z,21.37
2023-05-15T11:58:05.666Z,21.35
2023-05-15T11:59:05.662Z,21.25
2023-05-15T12:00:05.648Z,20.94
2023-05-15T12:01:05.657Z,20.91
2023-05-15T12:02:05.639Z,20.97
2023-05-15T12:03:05.688Z,20.94
2023-05-15T12:04:05.764Z,20.88
2023-05-15T12:05:05.734Z,20.94
2023-05-15T12:06:05.606Z,20.98
2023-05-15T12:07:05.566Z,21.03
2023-05-15T12:08:05.555Z,21.07
2023-05-15T12:09:05.553Z,21.06
2023-05-15T12:10:05.536Z,20.97
2023-05-15T12:11:05.594Z,20.84
2023-05-15T12:12:05.524Z,20.92
2023-05-15T12:13:05.501Z,21.29
2023-05-15T12:14:05.496Z,21.38
2023-05-15T12:15:05.493Z,21.35
2023-05-15T12:16:05.565Z,21.40
2023-05-15T12:17:05.475Z,21.54
2023-05-15T12:18:05.506Z,21.77
2023-05-15T12:19:05.516Z,21.86
2023-05-15T12:20:05.433Z,21.65
2023-05-15T12:21:05.423Z,21.61
2023-05-15T12:22:05.410Z,21.54
2023-05-15T12:23:05.386Z,21.22
2023-05-15T12:24:08.132Z,20.82
2023-05-15T12:25:05.389Z,20.76
2023-05-15T12:26:05.355Z,20.82
2023-05-15T12:27:05.367Z,20.79
2023-05-15T12:28:05.345Z,20.73
2023-05-15T12:29:05.803Z,20.67
2023-05-15T12:30:05.319Z,20.69
2023-05-15T12:31:05.300Z,20.59
2023-05-15T12:32:05.373Z,20.59
2023-05-15T12:33:05.297Z,20.52
2023-05-15T12:34:05.301Z,20.57
2023-05-15T12:35:05.258Z,20.48
2023-05-15T12:36:05.250Z,20.42
2023-05-15T12:37:05.236Z,20.26
2023-05-15T12:38:05.222Z,20.29
2023-05-15T12:39:05.227Z,20.31
2023-05-15T12:40:05.206Z,20.26
2023-05-15T12:41:05.194Z,20.28
2023-05-15T12:42:05.184Z,20.24
2023-05-15T12:43:05.193Z,20.26
2023-05-15T12:44:05.180Z,20.11
2023-05-15T12:45:05.142Z,20.13
2023-05-15T12:46:05.180Z,20.14
2023-05-15T12:47:05.120Z,20.31
2023-05-15T12:48:05.278Z,20.35
2023-05-15T12:49:05.104Z,20.39
2023-05-15T12:50:05.091Z,20.42
2023-05-15T12:51:05.085Z,20.54
2023-05-15T12:52:05.068Z,20.58
2023-05-15T12:53:05.464Z,20.64
2023-05-15T12:54:05.041Z,20.72
2023-05-15T12:55:05.028Z,20.76
2023-05-15T12:56:05.016Z,20.88
2023-05-15T12:57:05.010Z,20.85
2023-05-15T12:58:05.013Z,21.12
2023-05-15T12:59:05.090Z,21.24
2023-05-15T13:00:04.971Z,21.56
2023-05-15T13:01:04.984Z,21.62
2023-05-15T13:02:04.976Z,21.74
2023-05-15T13:03:05.043Z,21.77
2023-05-15T13:04:04.958Z,21.84
2023-05-15T13:05:04.916Z,21.94
2023-05-15T13:06:04.929Z,21.94